sensor_id;sensor_type;location;lat;lon;timestamp;temperature;humidity
25963;DHT22;13760;52.588;13.406;2023-12-04T00:02:10;-3.70;99.90
25963;DHT22;13760;52.588;13.406;2023-12-04T00:04:36;-3.70;99.90
25963;DHT22;13760;52.588;13.406;2023-12-04T00:07:01;-3.80;99.90
25963;DHT22;13760;52.588;13.406;2023-12-04T00:09:27;-3.80;99.90
25963;DHT22;13760;52.588;13.406;2023-12-04T00:11:52;-3.80;99.90
25963;DHT22;13760;52.588;13.406;2023-12-04T00:14:18;-3.90;99.90
25963;DHT22;13760;52.588;13.406;2023-12-04T00:16:43;-3.90;99.90
25963;DHT22;13760;52.588;13.406;2023-12-04T00:19:09;-3.90;99.90
25963;DHT22;13760;52.588;13.406;2023-12-04T00:21:35;-4.00;99.90
25963;DHT22;13760;52.588;13.406;2023-12-04T00:24:00;-4.00;99.90
25963;DHT22;13760;52.588;13.406;2023-12-04T00:26:26;-4.00;99.90
25963;DHT22;13760;52.588;13.406;2023-12-04T00:28:51;-4.00;99.90
25963;DHT22;13760;52.588;13.406;2023-12-04T00:31:17;-4.10;99.90
25963;DHT22;13760;52.588;13.406;2023-12-04T00:33:42;-4.10;99.90
25963;DHT22;13760;52.588;13.406;2023-12-04T00:36:09;-4.10;99.90
25963;DHT22;13760;52.588;13.406;2023-12-04T00:38:35;-4.00;99.90
25963;DHT22;13760;52.588;13.406;2023-12-04T00:41:00;-4.10;99.90
25963;DHT22;13760;52.588;13.406;2023-12-04T00:43:26;-4.10;99.90
25963;DHT22;13760;52.588;13.406;2023-12-04T00:45:51;-4.10;99.90
25963;DHT22;13760;52.588;13.406;2023-12-04T00:48:16;-4.10;99.90
25963;DHT22;13760;52.588;13.406;2023-12-04T00:50:42;-4.10;99.90
25963;DHT22;13760;52.588;13.406;2023-12-04T00:53:07;-4.20;99.90
25963;DHT22;13760;52.588;13.406;2023-12-04T00:55:33;-4.20;99.90
25963;DHT22;13760;52.588;13.406;2023-12-04T00:57:58;-4.20;99.90
25963;DHT22;13760;52.588;13.406;2023-12-04T01:00:24;-4.20;99.90
25963;DHT22;13760;52.588;13.406;2023-12-04T01:02:51;-4.20;99.90
25963;DHT22;13760;52.588;13.406;2023-12-04T01:05:16;-4.30;99.90
25963;DHT22;13760;52.588;13.406;2023-12-04T01:07:42;-4.30;99.90
25963;DHT22;13760;52.588;13.406;2023-12-04T01:10:08;-4.30;99.90
25963;DHT22;13760;52.588;13.406;2023-12-04T01:12:33;-4.30;99.90
25963;DHT22;13760;52.588;13.406;2023-12-04T01:14:59;-4.30;99.90
25963;DHT22;13760;52.588;13.406;2023-12-04T01:17:24;-4.20;99.90
25963;DHT22;13760;52.588;13.406;2023-12-04T01:19:50;-4.20;99.90
25963;DHT22;13760;52.588;13.406;2023-12-04T01:22:15;-4.20;99.90
25963;DHT22;13760;52.588;13.406;2023-12-04T01:24:41;-4.20;99.90
25963;DHT22;13760;52.588;13.406;2023-12-04T01:27:06;-4.20;99.90
25963;DHT22;13760;52.588;13.406;2023-12-04T01:29:32;-4.20;99.90
25963;DHT22;13760;52.588;13.406;2023-12-04T01:31:57;-4.20;99.90
25963;DHT22;13760;52.588;13.406;2023-12-04T01:34:23;-4.20;99.90
25963;DHT22;13760;52.588;13.406;2023-12-04T01:36:48;-4.20;99.90
25963;DHT22;13760;52.588;13.406;2023-12-04T01:39:14;-4.20;99.90
25963;DHT22;13760;52.588;13.406;2023-12-04T01:41:39;-4.20;99.90
25963;DHT22;13760;52.588;13.406;2023-12-04T01:44:05;-4.20;99.90
25963;DHT22;13760;52.588;13.406;2023-12-04T01:46:31;-4.20;99.90
25963;DHT22;13760;52.588;13.406;2023-12-04T01:48:57;-4.20;99.90
25963;DHT22;13760;52.588;13.406;2023-12-04T01:51:23;-4.20;99.90
25963;DHT22;13760;52.588;13.406;2023-12-04T01:53:51;-4.20;99.90
25963;DHT22;13760;52.588;13.406;2023-12-04T01:56:18;-4.20;99.90
25963;DHT22;13760;52.588;13.406;2023-12-04T01:58:44;-4.10;99.90
25963;DHT22;13760;52.588;13.406;2023-12-04T02:01:11;-4.10;99.90
25963;DHT22;13760;52.588;13.406;2023-12-04T02:03:36;-4.10;99.90
25963;DHT22;13760;52.588;13.406;2023-12-04T02:06:02;-4.10;99.90
25963;DHT22;13760;52.588;13.406;2023-12-04T02:08:29;-4.10;99.90
25963;DHT22;13760;52.588;13.406;2023-12-04T02:10:55;-4.10;99.90
25963;DHT22;13760;52.588;13.406;2023-12-04T02:13:21;-4.10;99.90
25963;DHT22;13760;52.588;13.406;2023-12-04T02:15:49;-4.10;99.90
25963;DHT22;13760;52.588;13.406;2023-12-04T02:18:17;-4.10;99.90
25963;DHT22;13760;52.588;13.406;2023-12-04T02:20:44;-4.10;99.90
25963;DHT22;13760;52.588;13.406;2023-12-04T02:23:09;-4.00;99.90
25963;DHT22;13760;52.588;13.406;2023-12-04T02:25:35;-4.00;99.90
25963;DHT22;13760;52.588;13.406;2023-12-04T02:28:04;-4.00;99.90
25963;DHT22;13760;52.588;13.406;2023-12-04T02:30:31;-4.00;99.90
25963;DHT22;13760;52.588;13.406;2023-12-04T02:32:59;-4.00;99.90
25963;DHT22;13760;52.588;13.406;2023-12-04T02:35:28;-4.00;99.90
25963;DHT22;13760;52.588;13.406;2023-12-04T02:37:55;-3.90;99.90
25963;DHT22;13760;52.588;13.406;2023-12-04T02:40:23;-3.80;99.90
25963;DHT22;13760;52.588;13.406;2023-12-04T02:42:49;-3.80;99.90
25963;DHT22;13760;52.588;13.406;2023-12-04T02:45:15;-3.70;99.90
25963;DHT22;13760;52.588;13.406;2023-12-04T02:47:40;-3.70;99.90
25963;DHT22;13760;52.588;13.406;2023-12-04T02:50:06;-3.60;99.90
25963;DHT22;13760;52.588;13.406;2023-12-04T02:52:32;-3.60;99.90
25963;DHT22;13760;52.588;13.406;2023-12-04T02:54:57;-3.60;99.90
25963;DHT22;13760;52.588;13.406;2023-12-04T02:57:23;-3.50;99.90
25963;DHT22;13760;52.588;13.406;2023-12-04T02:59:49;-3.50;99.90
25963;DHT22;13760;52.588;13.406;2023-12-04T03:02:14;-3.50;99.90
25963;DHT22;13760;52.588;13.406;2023-12-04T03:04:40;-3.50;99.90
25963;DHT22;13760;52.588;13.406;2023-12-04T03:07:06;-3.50;99.90
25963;DHT22;13760;52.588;13.406;2023-12-04T03:09:31;-3.50;99.90
25963;DHT22;13760;52.588;13.406;2023-12-04T03:11:57;-3.50;99.90
25963;DHT22;13760;52.588;13.406;2023-12-04T03:14:22;-3.50;99.90
25963;DHT22;13760;52.588;13.406;2023-12-04T03:16:49;-3.50;99.90
25963;DHT22;13760;52.588;13.406;2023-12-04T03:19:14;-3.50;99.90
25963;DHT22;13760;52.588;13.406;2023-12-04T03:21:40;-3.50;99.90
25963;DHT22;13760;52.588;13.406;2023-12-04T03:24:05;-3.50;99.90
25963;DHT22;13760;52.588;13.406;2023-12-04T03:26:31;-3.50;99.90
25963;DHT22;13760;52.588;13.406;2023-12-04T03:28:57;-3.60;99.90
25963;DHT22;13760;52.588;13.406;2023-12-04T03:31:23;-3.60;99.90
25963;DHT22;13760;52.588;13.406;2023-12-04T03:33:48;-3.60;99.90
25963;DHT22;13760;52.588;13.406;2023-12-04T03:36:14;-3.60;99.90
25963;DHT22;13760;52.588;13.406;2023-12-04T03:38:39;-3.60;99.90
25963;DHT22;13760;52.588;13.406;2023-12-04T03:41:12;-3.60;99.90
25963;DHT22;13760;52.588;13.406;2023-12-04T03:43:38;-3.60;99.90
25963;DHT22;13760;52.588;13.406;2023-12-04T03:46:04;-3.60;99.90
25963;DHT22;13760;52.588;13.406;2023-12-04T03:48:29;-3.60;99.90
25963;DHT22;13760;52.588;13.406;2023-12-04T03:50:55;-3.60;99.90
25963;DHT22;13760;52.588;13.406;2023-12-04T03:53:20;-3.60;99.90
25963;DHT22;13760;52.588;13.406;2023-12-04T03:55:46;-3.60;99.90
25963;DHT22;13760;52.588;13.406;2023-12-04T03:58:11;-3.60;99.90
25963;DHT22;13760;52.588;13.406;2023-12-04T04:00:37;-3.60;99.90
25963;DHT22;13760;52.588;13.406;2023-12-04T04:03:06;-3.60;99.90
25963;DHT22;13760;52.588;13.406;2023-12-04T04:05:32;-3.60;99.90
25963;DHT22;13760;52.588;13.406;2023-12-04T04:07:59;-3.60;99.90
25963;DHT22;13760;52.588;13.406;2023-12-04T04:10:25;-3.50;99.90
25963;DHT22;13760;52.588;13.406;2023-12-04T04:12:50;-3.50;99.90
25963;DHT22;13760;52.588;13.406;2023-12-04T04:15:16;-3.50;99.90
25963;DHT22;13760;52.588;13.406;2023-12-04T04:17:41;-3.60;99.90
25963;DHT22;13760;52.588;13.406;2023-12-04T04:20:07;-3.60;99.90
25963;DHT22;13760;52.588;13.406;2023-12-04T04:22:33;-3.60;99.90
25963;DHT22;13760;52.588;13.406;2023-12-04T04:25:04;-3.60;99.90
25963;DHT22;13760;52.588;13.406;2023-12-04T04:27:30;-3.60;99.90
25963;DHT22;13760;52.588;13.406;2023-12-04T04:29:55;-3.70;99.90
25963;DHT22;13760;52.588;13.406;2023-12-04T04:32:21;-3.70;99.90
25963;DHT22;13760;52.588;13.406;2023-12-04T04:34:46;-3.70;99.90
25963;DHT22;13760;52.588;13.406;2023-12-04T04:37:12;-3.70;99.90
25963;DHT22;13760;52.588;13.406;2023-12-04T04:39:39;-3.70;99.90
25963;DHT22;13760;52.588;13.406;2023-12-04T04:42:05;-3.70;99.90
25963;DHT22;13760;52.588;13.406;2023-12-04T04:44:31;-3.70;99.90
25963;DHT22;13760;52.588;13.406;2023-12-04T04:46:56;-3.80;99.90
25963;DHT22;13760;52.588;13.406;2023-12-04T04:49:24;-3.70;99.90
25963;DHT22;13760;52.588;13.406;2023-12-04T04:51:50;-3.70;99.90
25963;DHT22;13760;52.588;13.406;2023-12-04T04:54:15;-3.70;99.90
25963;DHT22;13760;52.588;13.406;2023-12-04T04:56:41;-3.70;99.90
25963;DHT22;13760;52.588;13.406;2023-12-04T04:59:06;-3.70;99.90
25963;DHT22;13760;52.588;13.406;2023-12-04T05:01:32;-3.70;99.90
25963;DHT22;13760;52.588;13.406;2023-12-04T05:03:58;-3.60;99.90
25963;DHT22;13760;52.588;13.406;2023-12-04T05:06:23;-3.60;99.90
25963;DHT22;13760;52.588;13.406;2023-12-04T05:08:49;-3.60;99.90
25963;DHT22;13760;52.588;13.406;2023-12-04T05:11:17;-3.60;99.90
25963;DHT22;13760;52.588;13.406;2023-12-04T05:13:45;-3.50;99.90
25963;DHT22;13760;52.588;13.406;2023-12-04T05:16:10;-3.50;99.90
25963;DHT22;13760;52.588;13.406;2023-12-04T05:18:36;-3.50;99.90
25963;DHT22;13760;52.588;13.406;2023-12-04T05:21:01;-3.50;99.90
25963;DHT22;13760;52.588;13.406;2023-12-04T05:23:28;-3.50;99.90
25963;DHT22;13760;52.588;13.406;2023-12-04T05:25:53;-3.50;99.90
25963;DHT22;13760;52.588;13.406;2023-12-04T05:28:19;-3.50;99.90
25963;DHT22;13760;52.588;13.406;2023-12-04T05:30:44;-3.50;99.90
25963;DHT22;13760;52.588;13.406;2023-12-04T05:33:09;-3.50;99.90
25963;DHT22;13760;52.588;13.406;2023-12-04T05:35:35;-3.50;99.90
25963;DHT22;13760;52.588;13.406;2023-12-04T05:38:02;-3.50;99.90
25963;DHT22;13760;52.588;13.406;2023-12-04T05:40:27;-3.50;99.90
25963;DHT22;13760;52.588;13.406;2023-12-04T05:42:53;-3.50;99.90
25963;DHT22;13760;52.588;13.406;2023-12-04T05:45:18;-3.50;99.90
25963;DHT22;13760;52.588;13.406;2023-12-04T05:47:44;-3.50;99.90
25963;DHT22;13760;52.588;13.406;2023-12-04T05:50:09;-3.50;99.90
25963;DHT22;13760;52.588;13.406;2023-12-04T05:52:35;-3.50;99.90
25963;DHT22;13760;52.588;13.406;2023-12-04T05:55:00;-3.50;99.90
25963;DHT22;13760;52.588;13.406;2023-12-04T05:57:26;-3.50;99.90
25963;DHT22;13760;52.588;13.406;2023-12-04T05:59:51;-3.50;99.90
25963;DHT22;13760;52.588;13.406;2023-12-04T06:02:17;-3.60;99.90
25963;DHT22;13760;52.588;13.406;2023-12-04T06:04:42;-3.60;99.90
25963;DHT22;13760;52.588;13.406;2023-12-04T06:07:09;-3.50;99.90
25963;DHT22;13760;52.588;13.406;2023-12-04T06:09:34;-3.50;99.90
25963;DHT22;13760;52.588;13.406;2023-12-04T06:12:02;-3.50;99.90
25963;DHT22;13760;52.588;13.406;2023-12-04T06:14:33;-3.50;99.90
25963;DHT22;13760;52.588;13.406;2023-12-04T06:16:59;-3.50;99.90
25963;DHT22;13760;52.588;13.406;2023-12-04T06:19:25;-3.40;99.90
25963;DHT22;13760;52.588;13.406;2023-12-04T06:21:50;-3.40;99.90
25963;DHT22;13760;52.588;13.406;2023-12-04T06:24:18;-3.30;99.90
25963;DHT22;13760;52.588;13.406;2023-12-04T06:26:44;-3.30;99.90
25963;DHT22;13760;52.588;13.406;2023-12-04T06:29:13;-3.30;99.90
25963;DHT22;13760;52.588;13.406;2023-12-04T06:31:39;-3.20;99.90
25963;DHT22;13760;52.588;13.406;2023-12-04T06:34:05;-3.20;99.90
25963;DHT22;13760;52.588;13.406;2023-12-04T06:36:37;-3.10;99.90
25963;DHT22;13760;52.588;13.406;2023-12-04T06:39:06;-3.10;99.90
25963;DHT22;13760;52.588;13.406;2023-12-04T06:41:34;-3.10;99.90
25963;DHT22;13760;52.588;13.406;2023-12-04T06:44:00;-3.10;99.90
25963;DHT22;13760;52.588;13.406;2023-12-04T06:46:28;-3.10;99.90
25963;DHT22;13760;52.588;13.406;2023-12-04T06:48:57;-3.00;99.90
25963;DHT22;13760;52.588;13.406;2023-12-04T06:51:24;-3.00;99.90
25963;DHT22;13760;52.588;13.406;2023-12-04T06:53:50;-3.00;99.90
25963;DHT22;13760;52.588;13.406;2023-12-04T06:56:15;-2.90;99.90
25963;DHT22;13760;52.588;13.406;2023-12-04T06:58:41;-2.90;99.90
25963;DHT22;13760;52.588;13.406;2023-12-04T07:01:07;-2.90;99.90
25963;DHT22;13760;52.588;13.406;2023-12-04T07:03:32;-2.90;99.90
25963;DHT22;13760;52.588;13.406;2023-12-04T07:05:58;-2.80;99.90
25963;DHT22;13760;52.588;13.406;2023-12-04T07:08:24;-2.80;99.90
25963;DHT22;13760;52.588;13.406;2023-12-04T07:10:49;-2.80;99.90
25963;DHT22;13760;52.588;13.406;2023-12-04T07:13:15;-2.80;99.90
25963;DHT22;13760;52.588;13.406;2023-12-04T07:15:41;-2.70;99.90
25963;DHT22;13760;52.588;13.406;2023-12-04T07:18:07;-2.70;99.90
25963;DHT22;13760;52.588;13.406;2023-12-04T07:20:32;-2.70;99.90
25963;DHT22;13760;52.588;13.406;2023-12-04T07:22:58;-2.70;99.90
25963;DHT22;13760;52.588;13.406;2023-12-04T07:25:27;-2.70;99.90
25963;DHT22;13760;52.588;13.406;2023-12-04T07:27:55;-2.60;99.90
25963;DHT22;13760;52.588;13.406;2023-12-04T07:30:23;-2.60;99.90
25963;DHT22;13760;52.588;13.406;2023-12-04T07:32:50;-2.60;99.90
25963;DHT22;13760;52.588;13.406;2023-12-04T07:35:18;-2.60;99.90
25963;DHT22;13760;52.588;13.406;2023-12-04T07:37:44;-2.60;99.90
25963;DHT22;13760;52.588;13.406;2023-12-04T07:40:15;-2.60;99.90
25963;DHT22;13760;52.588;13.406;2023-12-04T07:42:41;-2.60;99.90
25963;DHT22;13760;52.588;13.406;2023-12-04T07:45:13;-2.60;99.90
25963;DHT22;13760;52.588;13.406;2023-12-04T07:47:41;-2.50;99.90
25963;DHT22;13760;52.588;13.406;2023-12-04T07:50:07;-2.60;99.90
25963;DHT22;13760;52.588;13.406;2023-12-04T07:52:35;-2.60;99.90
25963;DHT22;13760;52.588;13.406;2023-12-04T07:55:01;-2.50;99.90
25963;DHT22;13760;52.588;13.406;2023-12-04T07:57:34;-2.60;99.90
25963;DHT22;13760;52.588;13.406;2023-12-04T07:59:59;-2.50;99.90
25963;DHT22;13760;52.588;13.406;2023-12-04T08:02:27;-2.50;99.90
25963;DHT22;13760;52.588;13.406;2023-12-04T08:04:56;-2.50;99.90
25963;DHT22;13760;52.588;13.406;2023-12-04T08:07:21;-2.50;99.90
25963;DHT22;13760;52.588;13.406;2023-12-04T08:09:50;-2.50;99.90
25963;DHT22;13760;52.588;13.406;2023-12-04T08:12:16;-2.40;99.90
25963;DHT22;13760;52.588;13.406;2023-12-04T08:14:46;-2.40;99.90
25963;DHT22;13760;52.588;13.406;2023-12-04T08:17:12;-2.40;99.90
25963;DHT22;13760;52.588;13.406;2023-12-04T08:19:38;-2.30;99.90
25963;DHT22;13760;52.588;13.406;2023-12-04T08:22:06;-2.30;99.90
25963;DHT22;13760;52.588;13.406;2023-12-04T08:24:32;-2.20;99.90
25963;DHT22;13760;52.588;13.406;2023-12-04T08:27:00;-2.20;99.90
25963;DHT22;13760;52.588;13.406;2023-12-04T08:29:28;-2.10;99.90
25963;DHT22;13760;52.588;13.406;2023-12-04T08:31:54;-2.10;99.90
25963;DHT22;13760;52.588;13.406;2023-12-04T08:34:21;-2.10;99.90
25963;DHT22;13760;52.588;13.406;2023-12-04T08:36:47;-2.00;99.90
25963;DHT22;13760;52.588;13.406;2023-12-04T08:39:13;-2.00;99.90
25963;DHT22;13760;52.588;13.406;2023-12-04T08:41:39;-1.90;99.90
25963;DHT22;13760;52.588;13.406;2023-12-04T08:44:04;-1.90;99.90
25963;DHT22;13760;52.588;13.406;2023-12-04T08:46:30;-1.90;99.90
25963;DHT22;13760;52.588;13.406;2023-12-04T08:48:58;-1.80;99.90
25963;DHT22;13760;52.588;13.406;2023-12-04T08:51:24;-1.80;99.90
25963;DHT22;13760;52.588;13.406;2023-12-04T08:53:54;-1.70;99.90
25963;DHT22;13760;52.588;13.406;2023-12-04T08:56:22;-1.70;99.90
25963;DHT22;13760;52.588;13.406;2023-12-04T08:58:48;-1.70;99.90
25963;DHT22;13760;52.588;13.406;2023-12-04T09:01:18;-1.70;99.90
25963;DHT22;13760;52.588;13.406;2023-12-04T09:03:44;-1.60;99.90
25963;DHT22;13760;52.588;13.406;2023-12-04T09:06:09;-1.60;99.90
25963;DHT22;13760;52.588;13.406;2023-12-04T09:08:35;-1.50;99.90
25963;DHT22;13760;52.588;13.406;2023-12-04T09:11:01;-1.50;99.90
25963;DHT22;13760;52.588;13.406;2023-12-04T09:13:29;-1.50;99.90
25963;DHT22;13760;52.588;13.406;2023-12-04T09:15:57;-1.50;99.90
25963;DHT22;13760;52.588;13.406;2023-12-04T09:18:22;-1.50;99.90
25963;DHT22;13760;52.588;13.406;2023-12-04T09:20:48;-1.50;99.90
25963;DHT22;13760;52.588;13.406;2023-12-04T09:23:13;-1.50;99.90
25963;DHT22;13760;52.588;13.406;2023-12-04T09:25:39;-1.50;99.90
25963;DHT22;13760;52.588;13.406;2023-12-04T09:28:04;-1.50;99.90
25963;DHT22;13760;52.588;13.406;2023-12-04T09:30:30;-1.50;99.90
25963;DHT22;13760;52.588;13.406;2023-12-04T09:32:55;-1.50;99.90
25963;DHT22;13760;52.588;13.406;2023-12-04T09:35:21;-1.50;99.90
25963;DHT22;13760;52.588;13.406;2023-12-04T09:37:47;-1.50;99.90
25963;DHT22;13760;52.588;13.406;2023-12-04T09:40:16;-1.40;99.90
25963;DHT22;13760;52.588;13.406;2023-12-04T09:42:41;-1.40;99.90
25963;DHT22;13760;52.588;13.406;2023-12-04T09:45:08;-1.30;99.90
25963;DHT22;13760;52.588;13.406;2023-12-04T09:47:34;-1.30;99.90
25963;DHT22;13760;52.588;13.406;2023-12-04T09:50:00;-1.30;99.90
25963;DHT22;13760;52.588;13.406;2023-12-04T09:52:27;-1.30;99.90
25963;DHT22;13760;52.588;13.406;2023-12-04T09:54:53;-1.30;99.90
25963;DHT22;13760;52.588;13.406;2023-12-04T09:57:19;-1.20;99.90
25963;DHT22;13760;52.588;13.406;2023-12-04T09:59:45;-1.20;99.90
25963;DHT22;13760;52.588;13.406;2023-12-04T10:02:11;-1.20;99.90
25963;DHT22;13760;52.588;13.406;2023-12-04T10:04:37;-1.10;99.90
25963;DHT22;13760;52.588;13.406;2023-12-04T10:07:03;-1.10;99.90
25963;DHT22;13760;52.588;13.406;2023-12-04T10:09:29;-1.00;99.90
25963;DHT22;13760;52.588;13.406;2023-12-04T10:11:58;-1.00;99.90
25963;DHT22;13760;52.588;13.406;2023-12-04T10:14:24;-0.90;99.90
25963;DHT22;13760;52.588;13.406;2023-12-04T10:16:51;-0.90;99.90
25963;DHT22;13760;52.588;13.406;2023-12-04T10:19:23;-0.80;99.90
25963;DHT22;13760;52.588;13.406;2023-12-04T10:21:51;-0.70;99.90
25963;DHT22;13760;52.588;13.406;2023-12-04T10:24:33;-0.70;99.90
25963;DHT22;13760;52.588;13.406;2023-12-04T10:27:01;-0.60;99.90
25963;DHT22;13760;52.588;13.406;2023-12-04T10:29:29;-0.50;99.90
25963;DHT22;13760;52.588;13.406;2023-12-04T10:31:57;-0.50;99.90
25963;DHT22;13760;52.588;13.406;2023-12-04T10:34:25;-0.40;99.90
25963;DHT22;13760;52.588;13.406;2023-12-04T10:36:52;-0.30;99.90
25963;DHT22;13760;52.588;13.406;2023-12-04T10:39:17;-0.30;99.90
25963;DHT22;13760;52.588;13.406;2023-12-04T10:41:44;-0.20;99.90
25963;DHT22;13760;52.588;13.406;2023-12-04T10:44:09;-0.20;99.90
25963;DHT22;13760;52.588;13.406;2023-12-04T10:46:36;-0.10;99.90
25963;DHT22;13760;52.588;13.406;2023-12-04T10:49:04;-0.10;99.90
25963;DHT22;13760;52.588;13.406;2023-12-04T10:51:30;-0.10;99.90
25963;DHT22;13760;52.588;13.406;2023-12-04T10:53:55;-0.10;99.90
25963;DHT22;13760;52.588;13.406;2023-12-04T10:56:33;-0.10;99.90
25963;DHT22;13760;52.588;13.406;2023-12-04T10:59:01;-0.10;99.90
25963;DHT22;13760;52.588;13.406;2023-12-04T11:01:29;-0.10;99.90
25963;DHT22;13760;52.588;13.406;2023-12-04T11:04:07;-0.10;99.90
25963;DHT22;13760;52.588;13.406;2023-12-04T11:06:39;-0.10;99.90
25963;DHT22;13760;52.588;13.406;2023-12-04T11:09:05;-0.10;99.90
25963;DHT22;13760;52.588;13.406;2023-12-04T11:11:34;-0.20;99.90
25963;DHT22;13760;52.588;13.406;2023-12-04T11:14:01;-0.20;99.90
25963;DHT22;13760;52.588;13.406;2023-12-04T11:16:34;-0.10;99.90
25963;DHT22;13760;52.588;13.406;2023-12-04T11:19:23;-0.10;99.90
25963;DHT22;13760;52.588;13.406;2023-12-04T11:21:53;-0.10;99.90
25963;DHT22;13760;52.588;13.406;2023-12-04T11:24:21;-0.10;99.90
25963;DHT22;13760;52.588;13.406;2023-12-04T11:26:47;-0.10;99.90
25963;DHT22;13760;52.588;13.406;2023-12-04T11:29:17;-0.10;99.90
25963;DHT22;13760;52.588;13.406;2023-12-04T11:31:43;-0.10;99.90
25963;DHT22;13760;52.588;13.406;2023-12-04T11:34:09;-0.10;99.90
25963;DHT22;13760;52.588;13.406;2023-12-04T11:36:37;0.00;99.90
25963;DHT22;13760;52.588;13.406;2023-12-04T11:39:03;0.00;99.90
25963;DHT22;13760;52.588;13.406;2023-12-04T11:41:35;0.00;99.90
25963;DHT22;13760;52.588;13.406;2023-12-04T11:44:00;0.00;99.90
25963;DHT22;13760;52.588;13.406;2023-12-04T11:46:27;0.10;99.90
25963;DHT22;13760;52.588;13.406;2023-12-04T11:51:50;0.10;99.90
25963;DHT22;13760;52.588;13.406;2023-12-04T11:54:21;0.10;99.90
25963;DHT22;13760;52.588;13.406;2023-12-04T11:59:37;0.10;99.90
25963;DHT22;13760;52.588;13.406;2023-12-04T12:02:07;0.20;99.90
25963;DHT22;13760;52.588;13.406;2023-12-04T12:04:33;0.20;99.90
25963;DHT22;13760;52.588;13.406;2023-12-04T12:06:59;0.30;99.90
25963;DHT22;13760;52.588;13.406;2023-12-04T12:09:28;0.30;99.90
25963;DHT22;13760;52.588;13.406;2023-12-04T12:11:53;0.30;99.90
25963;DHT22;13760;52.588;13.406;2023-12-04T12:14:21;0.30;99.90
25963;DHT22;13760;52.588;13.406;2023-12-04T12:16:47;0.30;99.90
25963;DHT22;13760;52.588;13.406;2023-12-04T12:19:12;0.30;99.90
25963;DHT22;13760;52.588;13.406;2023-12-04T12:21:38;0.30;99.90
25963;DHT22;13760;52.588;13.406;2023-12-04T12:24:05;0.20;99.90
25963;DHT22;13760;52.588;13.406;2023-12-04T12:26:32;0.20;99.90
25963;DHT22;13760;52.588;13.406;2023-12-04T12:28:57;0.30;99.90
25963;DHT22;13760;52.588;13.406;2023-12-04T12:31:23;0.30;99.90
25963;DHT22;13760;52.588;13.406;2023-12-04T12:33:48;0.30;99.90
25963;DHT22;13760;52.588;13.406;2023-12-04T12:36:15;0.30;99.90
25963;DHT22;13760;52.588;13.406;2023-12-04T12:38:44;0.30;99.90
25963;DHT22;13760;52.588;13.406;2023-12-04T12:41:15;0.30;99.90
25963;DHT22;13760;52.588;13.406;2023-12-04T12:43:41;0.20;99.90
25963;DHT22;13760;52.588;13.406;2023-12-04T12:46:07;0.30;99.90
25963;DHT22;13760;52.588;13.406;2023-12-04T12:48:32;0.30;99.90
25963;DHT22;13760;52.588;13.406;2023-12-04T12:50:58;0.30;99.90
25963;DHT22;13760;52.588;13.406;2023-12-04T12:53:23;0.30;99.90
25963;DHT22;13760;52.588;13.406;2023-12-04T12:55:49;0.30;99.90
25963;DHT22;13760;52.588;13.406;2023-12-04T12:58:15;0.30;99.90
25963;DHT22;13760;52.588;13.406;2023-12-04T13:00:46;0.30;99.90
25963;DHT22;13760;52.588;13.406;2023-12-04T13:03:19;0.30;99.90
25963;DHT22;13760;52.588;13.406;2023-12-04T13:05:45;0.20;99.90
25963;DHT22;13760;52.588;13.406;2023-12-04T13:08:11;0.30;99.90
25963;DHT22;13760;52.588;13.406;2023-12-04T13:10:42;0.20;99.90
25963;DHT22;13760;52.588;13.406;2023-12-04T13:13:14;0.20;99.90
25963;DHT22;13760;52.588;13.406;2023-12-04T13:15:43;0.20;99.90
25963;DHT22;13760;52.588;13.406;2023-12-04T13:18:09;0.20;99.90
25963;DHT22;13760;52.588;13.406;2023-12-04T13:20:34;0.20;99.90
25963;DHT22;13760;52.588;13.406;2023-12-04T13:23:01;0.20;99.90
25963;DHT22;13760;52.588;13.406;2023-12-04T13:25:26;0.20;99.90
25963;DHT22;13760;52.588;13.406;2023-12-04T13:27:53;0.20;99.90
25963;DHT22;13760;52.588;13.406;2023-12-04T13:30:18;0.20;99.90
25963;DHT22;13760;52.588;13.406;2023-12-04T13:32:45;0.20;99.90
25963;DHT22;13760;52.588;13.406;2023-12-04T13:35:11;0.20;99.90
25963;DHT22;13760;52.588;13.406;2023-12-04T13:37:37;0.10;99.90
25963;DHT22;13760;52.588;13.406;2023-12-04T13:40:05;0.10;99.90
25963;DHT22;13760;52.588;13.406;2023-12-04T13:42:35;0.10;99.90
25963;DHT22;13760;52.588;13.406;2023-12-04T13:45:19;0.10;99.90
25963;DHT22;13760;52.588;13.406;2023-12-04T13:47:48;0.00;99.90
25963;DHT22;13760;52.588;13.406;2023-12-04T13:50:14;0.00;99.90
25963;DHT22;13760;52.588;13.406;2023-12-04T13:52:40;0.00;99.90
25963;DHT22;13760;52.588;13.406;2023-12-04T13:55:09;0.00;99.90
25963;DHT22;13760;52.588;13.406;2023-12-04T13:57:45;-0.10;99.90
25963;DHT22;13760;52.588;13.406;2023-12-04T14:00:23;-0.10;99.90
25963;DHT22;13760;52.588;13.406;2023-12-04T14:02:49;-0.10;99.90
25963;DHT22;13760;52.588;13.406;2023-12-04T14:05:19;-0.10;99.90
25963;DHT22;13760;52.588;13.406;2023-12-04T14:07:45;-0.10;99.90
25963;DHT22;13760;52.588;13.406;2023-12-04T14:10:12;-0.10;99.90
25963;DHT22;13760;52.588;13.406;2023-12-04T14:12:40;-0.20;99.90
25963;DHT22;13760;52.588;13.406;2023-12-04T14:15:06;-0.20;99.90
25963;DHT22;13760;52.588;13.406;2023-12-04T14:17:32;-0.20;99.90
25963;DHT22;13760;52.588;13.406;2023-12-04T14:19:57;-0.20;99.90
25963;DHT22;13760;52.588;13.406;2023-12-04T14:22:23;-0.30;99.90
25963;DHT22;13760;52.588;13.406;2023-12-04T14:24:48;-0.30;99.90
25963;DHT22;13760;52.588;13.406;2023-12-04T14:27:14;-0.30;99.90
25963;DHT22;13760;52.588;13.406;2023-12-04T14:29:39;-0.40;99.90
25963;DHT22;13760;52.588;13.406;2023-12-04T14:32:05;-0.40;99.90
25963;DHT22;13760;52.588;13.406;2023-12-04T14:34:31;-0.40;99.90
25963;DHT22;13760;52.588;13.406;2023-12-04T14:36:58;-0.40;99.90
25963;DHT22;13760;52.588;13.406;2023-12-04T14:39:24;-0.40;99.90
25963;DHT22;13760;52.588;13.406;2023-12-04T14:41:50;-0.40;99.90
25963;DHT22;13760;52.588;13.406;2023-12-04T14:44:16;-0.40;99.90
25963;DHT22;13760;52.588;13.406;2023-12-04T14:46:42;-0.50;99.90
25963;DHT22;13760;52.588;13.406;2023-12-04T14:49:08;-0.50;99.90
25963;DHT22;13760;52.588;13.406;2023-12-04T14:51:33;-0.50;99.90
25963;DHT22;13760;52.588;13.406;2023-12-04T14:53:59;-0.50;99.90
25963;DHT22;13760;52.588;13.406;2023-12-04T14:56:42;-0.50;99.90
25963;DHT22;13760;52.588;13.406;2023-12-04T14:59:46;-0.50;99.90
25963;DHT22;13760;52.588;13.406;2023-12-04T15:02:30;-0.60;99.90
25963;DHT22;13760;52.588;13.406;2023-12-04T15:05:14;-0.60;99.90
25963;DHT22;13760;52.588;13.406;2023-12-04T15:07:59;-0.60;99.90
25963;DHT22;13760;52.588;13.406;2023-12-04T15:11:02;-0.60;99.90
25963;DHT22;13760;52.588;13.406;2023-12-04T15:13:46;-0.60;99.90
25963;DHT22;13760;52.588;13.406;2023-12-04T15:16:30;-0.60;99.90
25963;DHT22;13760;52.588;13.406;2023-12-04T15:19:11;-0.60;99.90
25963;DHT22;13760;52.588;13.406;2023-12-04T15:21:54;-0.60;99.90
25963;DHT22;13760;52.588;13.406;2023-12-04T15:24:20;-0.60;99.90